Time;durP1;ratioP1;P1;durP2;ratioP2;P2;SDS_P1;SDS_P2;PMS_P1;PMS_P2;Temp;Humidity;BMP_temperature;BMP_pressure;BME280_temperature;BME280_humidity;BME280_pressure;Samples;Min_cycle;Max_cycle;Signal;HPM_P1;HPM_P2
2022/08/30 00:02:14;;;;;;;12.07;8.80;;;14.20;99.90;;;;;;5095345;28;20246;-83
2022/08/30 00:04:41;;;;;;;9.63;8.43;;;14.20;99.90;;;;;;5095187;28;20201;-83
2022/08/30 00:07:08;;;;;;;12.77;8.90;;;14.10;99.90;;;;;;5095095;28;20209;-83
2022/08/30 00:09:34;;;;;;;11.30;8.67;;;14.00;99.90;;;;;;5095268;28;20200;-83
2022/08/30 00:12:03;;;;;;;14.33;9.33;;;14.00;99.90;;;;;;5095135;28;20201;-83
2022/08/30 00:14:29;;;;;;;11.53;8.40;;;13.90;99.90;;;;;;5095090;28;20200;-83
2022/08/30 00:16:56;;;;;;;9.63;8.60;;;13.80;99.90;;;;;;5094537;28;20664;-83
2022/08/30 00:19:24;;;;;;;10.43;8.87;;;13.80;99.90;;;;;;5094861;28;20227;-83
2022/08/30 00:21:51;;;;;;;11.63;8.33;;;13.90;99.90;;;;;;5095009;28;20273;-83
2022/08/30 00:24:17;;;;;;;14.07;9.03;;;14.00;99.90;;;;;;5095215;28;20200;-83
2022/08/30 00:26:44;;;;;;;12.87;9.17;;;14.00;99.90;;;;;;5095072;28;20201;-83
2022/08/30 00:29:11;;;;;;;8.77;7.87;;;13.90;99.90;;;;;;5094823;28;20196;-83
2022/08/30 00:31:37;;;;;;;10.50;7.93;;;13.90;99.90;;;;;;5094719;28;20208;-83
2022/08/30 00:34:04;;;;;;;8.93;7.70;;;13.80;99.90;;;;;;5095435;28;20200;-83
2022/08/30 00:36:32;;;;;;;9.13;8.03;;;13.90;99.90;;;;;;5094995;28;20196;-83
2022/08/30 00:38:59;;;;;;;8.17;7.37;;;14.00;99.90;;;;;;5094848;28;20220;-82
2022/08/30 00:41:26;;;;;;;9.57;7.63;;;14.00;99.90;;;;;;5094484;28;20200;-83
2022/08/30 00:43:52;;;;;;;12.97;8.80;;;14.00;99.90;;;;;;5094690;28;20257;-83
2022/08/30 00:46:19;;;;;;;13.63;8.70;;;13.90;99.90;;;;;;5094299;28;20621;-83
2022/08/30 00:48:49;;;;;;;13.10;8.50;;;13.90;99.90;;;;;;5094183;28;20207;-84
2022/08/30 00:51:17;;;;;;;12.33;8.93;;;13.80;99.90;;;;;;5094452;28;20203;-84
2022/08/30 00:53:48;;;;;;;13.40;8.63;;;13.90;99.90;;;;;;5094211;28;20670;-84
2022/08/30 00:56:17;;;;;;;11.73;8.10;;;13.90;99.90;;;;;;5094228;28;20663;-84
2022/08/30 00:58:46;;;;;;;14.23;8.50;;;14.00;99.90;;;;;;5094136;28;20246;-84
2022/08/30 01:01:14;;;;;;;12.53;8.57;;;13.90;99.90;;;;;;5094058;28;20227;-84
2022/08/30 01:03:42;;;;;;;10.23;8.27;;;14.00;99.90;;;;;;5094243;28;20196;-84
2022/08/30 01:06:09;;;;;;;9.60;8.13;;;13.90;99.90;;;;;;5094102;28;20544;-84
2022/08/30 01:08:37;;;;;;;11.40;7.87;;;13.90;99.90;;;;;;5094036;28;20196;-84
2022/08/30 01:11:06;;;;;;;12.47;8.23;;;13.90;99.90;;;;;;5093896;28;20746;-84
2022/08/30 01:13:34;;;;;;;12.40;8.40;;;14.00;99.90;;;;;;5093936;28;20264;-83
2022/08/30 01:16:01;;;;;;;11.67;8.40;;;13.90;99.90;;;;;;5094130;28;20193;-83
2022/08/30 01:18:28;;;;;;;11.13;8.10;;;14.00;99.90;;;;;;5093887;28;20261;-82
2022/08/30 01:21:03;;;;;;;9.47;7.97;;;14.10;99.90;;;;;;5093383;28;20228;-82
2022/08/30 01:23:33;;;;;;;10.00;8.50;;;14.10;99.90;;;;;;5093960;28;20211;-82
2022/08/30 01:26:01;;;;;;;10.70;8.40;;;14.10;99.90;;;;;;5093591;28;20196;-82
2022/08/30 01:28:29;;;;;;;12.80;8.47;;;14.20;99.90;;;;;;5092967;28;20722;-83
2022/08/30 01:30:56;;;;;;;9.90;8.50;;;14.10;99.90;;;;;;5094001;28;20246;-82
2022/08/30 01:33:23;;;;;;;11.53;9.00;;;14.10;99.90;;;;;;5093656;28;20613;-82
2022/08/30 01:35:54;;;;;;;10.67;8.73;;;14.10;99.90;;;;;;5093546;28;20204;-82
2022/08/30 01:38:24;;;;;;;11.90;8.70;;;14.10;99.90;;;;;;5093505;28;20341;-82
2022/08/30 01:40:57;;;;;;;12.03;8.50;;;14.00;99.90;;;;;;5093332;28;20273;-82
2022/08/30 01:43:23;;;;;;;12.07;8.43;;;14.00;99.90;;;;;;5093634;28;20200;-82
2022/08/30 01:45:50;;;;;;;9.43;8.13;;;14.10;99.90;;;;;;5093347;28;20241;-83
2022/08/30 01:48:17;;;;;;;11.50;8.80;;;14.10;99.90;;;;;;5093348;28;20196;-82
2022/08/30 01:50:43;;;;;;;10.17;7.97;;;14.30;99.90;;;;;;5093470;28;20226;-82
2022/08/30 01:53:10;;;;;;;12.70;8.20;;;14.20;99.90;;;;;;5093201;28;20196;-82
2022/08/30 01:55:37;;;;;;;12.50;8.07;;;14.20;99.90;;;;;;5093102;28;20250;-82
2022/08/30 01:58:05;;;;;;;10.20;8.43;;;14.20;99.90;;;;;;5093522;28;20228;-82
2022/08/30 02:00:32;;;;;;;12.33;8.77;;;14.10;99.90;;;;;;5093287;28;20235;-83
2022/08/30 02:02:59;;;;;;;11.23;9.13;;;14.00;99.90;;;;;;5093395;28;20192;-82
2022/08/30 02:05:26;;;;;;;10.50;9.13;;;14.00;99.90;;;;;;5093159;28;20651;-82
2022/08/30 02:07:53;;;;;;;14.17;9.23;;;14.00;99.90;;;;;;5093068;28;20207;-82
2022/08/30 02:10:20;;;;;;;13.70;9.57;;;13.90;99.90;;;;;;5093499;28;20202;-83
2022/08/30 02:12:47;;;;;;;13.30;9.07;;;13.80;99.90;;;;;;5097459;28;20192;-83
2022/08/30 02:15:15;;;;;;;18.73;9.40;;;13.80;99.90;;;;;;5098520;28;20200;-82
2022/08/30 02:17:42;;;;;;;10.87;9.37;;;13.90;99.90;;;;;;5098397;28;20541;-82
2022/08/30 02:20:10;;;;;;;14.83;8.90;;;13.90;99.90;;;;;;5098749;28;20256;-81
2022/08/30 02:22:37;;;;;;;12.57;9.20;;;13.80;99.90;;;;;;5099668;28;20200;-82
2022/08/30 02:25:06;;;;;;;11.37;9.40;;;13.80;99.90;;;;;;5100170;28;20212;-82
2022/08/30 02:27:32;;;;;;;11.77;9.40;;;13.70;99.90;;;;;;5099628;28;20221;-83
2022/08/30 02:29:59;;;;;;;12.73;8.97;;;13.70;99.90;;;;;;5099785;28;20655;-85
2022/08/30 02:32:27;;;;;;;11.93;9.00;;;13.60;99.90;;;;;;5099753;28;20200;-86
2022/08/30 02:34:54;;;;;;;12.30;9.30;;;13.60;99.90;;;;;;5094519;28;20200;-85
2022/08/30 02:37:20;;;;;;;11.47;9.10;;;13.60;99.90;;;;;;5093152;28;20196;-84
2022/08/30 02:39:47;;;;;;;10.03;9.03;;;13.60;99.90;;;;;;5093858;28;20224;-83
2022/08/30 02:42:14;;;;;;;12.30;9.90;;;13.60;99.90;;;;;;5096949;28;20204;-83
2022/08/30 02:44:40;;;;;;;12.83;9.90;;;13.60;99.90;;;;;;5096850;28;20254;-84
2022/08/30 02:47:07;;;;;;;10.43;9.43;;;13.50;99.90;;;;;;5096657;28;20192;-83
2022/08/30 02:49:36;;;;;;;14.87;10.13;;;13.60;99.90;;;;;;5096582;28;20200;-84
2022/08/30 02:52:03;;;;;;;12.87;9.43;;;13.60;99.90;;;;;;5096776;28;20192;-84
2022/08/30 02:54:31;;;;;;;10.27;9.17;;;13.50;99.90;;;;;;5096517;28;20224;-83
2022/08/30 02:57:01;;;;;;;11.87;10.30;;;13.60;99.90;;;;;;5096399;28;20740;-83
2022/08/30 02:59:28;;;;;;;15.90;10.20;;;13.60;99.90;;;;;;5096279;28;20266;-84
2022/08/30 03:01:55;;;;;;;12.93;9.93;;;13.60;99.90;;;;;;5096335;28;20644;-83
2022/08/30 03:04:22;;;;;;;10.80;9.70;;;13.70;99.90;;;;;;5096636;28;20200;-84
2022/08/30 03:06:50;;;;;;;12.70;9.87;;;13.80;99.90;;;;;;5096534;28;20254;-83
2022/08/30 03:09:17;;;;;;;15.70;9.90;;;13.80;99.90;;;;;;5096490;28;20622;-83
2022/08/30 03:11:44;;;;;;;10.30;9.20;;;13.80;99.90;;;;;;5096478;28;20269;-83
2022/08/30 03:14:10;;;;;;;12.33;9.30;;;13.80;99.90;;;;;;5096275;28;20192;-83
2022/08/30 03:16:38;;;;;;;13.73;9.87;;;13.80;99.90;;;;;;5096026;28;20230;-83
2022/08/30 03:19:04;;;;;;;11.53;9.80;;;13.80;99.90;;;;;;5096319;28;20291;-83
2022/08/30 03:21:31;;;;;;;11.43;9.77;;;13.80;99.90;;;;;;5099822;28;20224;-83
2022/08/30 03:23:59;;;;;;;12.43;9.80;;;13.90;99.90;;;;;;5097078;28;20200;-83
2022/08/30 03:26:26;;;;;;;12.00;9.30;;;13.90;99.90;;;;;;5096051;28;20200;-84
2022/08/30 03:28:52;;;;;;;14.60;9.47;;;13.90;99.90;;;;;;5095949;28;20192;-82
2022/08/30 03:31:19;;;;;;;12.50;9.33;;;13.80;99.90;;;;;;5095827;28;20200;-83
2022/08/30 03:33:46;;;;;;;11.33;9.53;;;13.80;99.90;;;;;;5095948;28;20594;-83
2022/08/30 03:36:12;;;;;;;16.87;10.33;;;13.80;99.90;;;;;;5095951;28;20280;-83
2022/08/30 03:38:39;;;;;;;10.77;8.90;;;13.90;99.90;;;;;;5095855;28;20200;-83
2022/08/30 03:41:07;;;;;;;14.73;9.70;;;13.90;99.90;;;;;;5095645;28;20594;-83
2022/08/30 03:43:34;;;;;;;13.27;10.30;;;13.80;99.90;;;;;;5095590;28;20250;-83
2022/08/30 03:46:01;;;;;;;15.03;9.37;;;13.80;99.90;;;;;;5095750;28;20329;-83
2022/08/30 03:48:28;;;;;;;14.20;10.30;;;13.80;99.90;;;;;;5095536;28;20632;-83
2022/08/30 03:50:55;;;;;;;13.07;10.13;;;13.70;99.90;;;;;;5095217;28;20200;-83
2022/08/30 03:53:23;;;;;;;12.77;9.67;;;13.70;99.90;;;;;;5095276;28;20241;-83
2022/08/30 03:55:49;;;;;;;13.07;9.90;;;13.70;99.90;;;;;;5095286;28;20376;-84
2022/08/30 03:58:17;;;;;;;11.20;9.90;;;13.70;99.90;;;;;;5095404;28;20200;-83
2022/08/30 04:00:44;;;;;;;11.87;10.00;;;13.70;99.90;;;;;;5095560;28;20273;-83
2022/08/30 04:03:10;;;;;;;10.13;9.20;;;13.60;99.90;;;;;;5095424;28;20222;-83
2022/08/30 04:05:37;;;;;;;12.00;10.63;;;13.60;99.90;;;;;;5095459;28;20193;-83
2022/08/30 04:08:04;;;;;;;14.20;10.43;;;13.60;99.90;;;;;;5095428;28;20196;-84
2022/08/30 04:10:31;;;;;;;14.03;10.97;;;13.70;99.90;;;;;;5095062;28;20210;-83
2022/08/30 04:12:57;;;;;;;10.83;9.73;;;13.80;99.90;;;;;;5095121;28;20725;-83
2022/08/30 04:15:25;;;;;;;10.57;9.40;;;13.90;99.90;;;;;;5094965;28;20200;-83
2022/08/30 04:17:53;;;;;;;13.73;9.07;;;14.00;99.90;;;;;;5095335;28;20652;-83
2022/08/30 04:20:20;;;;;;;10.53;9.43;;;14.00;99.90;;;;;;5094868;28;20687;-83
2022/08/30 04:22:47;;;;;;;18.07;9.60;;;13.90;99.90;;;;;;5094864;28;20594;-83
2022/08/30 04:25:14;;;;;;;13.07;10.43;;;13.90;99.90;;;;;;5094748;28;20196;-83
2022/08/30 04:27:40;;;;;;;10.80;9.17;;;13.90;99.90;;;;;;5095006;28;20205;-83
2022/08/30 04:30:08;;;;;;;11.00;9.23;;;14.00;99.90;;;;;;5094863;28;20196;-83
2022/08/30 04:32:37;;;;;;;10.87;9.47;;;14.00;99.90;;;;;;5094869;28;20205;-83
2022/08/30 04:35:04;;;;;;;14.33;10.60;;;13.90;99.90;;;;;;5094684;28;20262;-83
2022/08/30 04:37:31;;;;;;;12.73;9.90;;;13.90;99.90;;;;;;5094644;28;20558;-83
2022/08/30 04:39:59;;;;;;;12.70;9.40;;;14.00;99.90;;;;;;5094340;28;20737;-83
2022/08/30 04:42:26;;;;;;;11.73;8.93;;;13.90;99.90;;;;;;5094560;28;20203;-83
2022/08/30 04:44:53;;;;;;;11.70;10.03;;;13.90;99.90;;;;;;5094638;28;20616;-83
2022/08/30 04:47:20;;;;;;;17.73;11.20;;;13.90;99.90;;;;;;5094513;28;20200;-83
2022/08/30 04:49:48;;;;;;;10.97;9.43;;;13.90;99.90;;;;;;5094347;28;20196;-83
2022/08/30 04:52:14;;;;;;;13.70;10.10;;;13.80;99.90;;;;;;5094263;28;20251;-83
2022/08/30 04:54:41;;;;;;;12.27;9.93;;;13.90;99.90;;;;;;5094339;28;20228;-83
2022/08/30 04:57:08;;;;;;;11.53;10.33;;;13.90;99.90;;;;;;5094312;28;20196;-83
2022/08/30 04:59:35;;;;;;;13.53;10.47;;;13.90;99.90;;;;;;5094297;28;20552;-83
2022/08/30 05:02:02;;;;;;;14.87;11.27;;;13.90;99.90;;;;;;5094101;28;20630;-83
2022/08/30 05:04:28;;;;;;;11.57;9.90;;;13.90;99.90;;;;;;5093251;28;20229;-83
2022/08/30 05:06:56;;;;;;;11.03;9.87;;;13.90;99.90;;;;;;5094134;28;20200;-83
2022/08/30 05:09:23;;;;;;;13.33;10.50;;;13.90;99.90;;;;;;5094315;28;20223;-83
2022/08/30 05:11:50;;;;;;;12.93;10.53;;;13.90;99.90;;;;;;5093753;28;20205;-83
2022/08/30 05:14:16;;;;;;;13.00;10.17;;;13.90;99.90;;;;;;5094442;28;20246;-83
2022/08/30 05:16:44;;;;;;;13.50;10.63;;;13.90;99.90;;;;;;5093924;28;20567;-83
2022/08/30 05:19:10;;;;;;;14.63;11.07;;;13.80;99.90;;;;;;5093882;28;20253;-83
2022/08/30 05:21:39;;;;;;;11.93;10.20;;;13.80;99.90;;;;;;5093735;28;20220;-83
2022/08/30 05:24:07;;;;;;;15.67;11.60;;;13.80;99.90;;;;;;5094331;28;20199;-82
2022/08/30 05:26:37;;;;;;;12.40;10.83;;;13.80;99.90;;;;;;5094371;28;20204;-82
2022/08/30 05:29:04;;;;;;;14.80;10.83;;;13.80;99.90;;;;;;5095189;28;20246;-82
2022/08/30 05:31:33;;;;;;;11.60;10.23;;;13.80;99.90;;;;;;5094314;28;20200;-82
2022/08/30 05:34:00;;;;;;;12.20;9.70;;;13.90;99.90;;;;;;5094059;28;20245;-83
2022/08/30 05:36:29;;;;;;;11.67;10.47;;;13.90;99.90;;;;;;5094168;28;20261;-83
2022/08/30 05:38:56;;;;;;;12.33;10.20;;;14.00;99.90;;;;;;5094105;28;20200;-83
2022/08/30 05:41:24;;;;;;;12.23;9.97;;;14.00;99.90;;;;;;5094169;28;20220;-83
2022/08/30 05:43:52;;;;;;;10.80;9.30;;;14.10;99.90;;;;;;5093962;28;20196;-82
2022/08/30 05:46:20;;;;;;;12.07;10.00;;;14.20;99.90;;;;;;5094178;28;20252;-83
2022/08/30 05:48:47;;;;;;;14.07;11.33;;;14.40;99.90;;;;;;5094015;28;20555;-82
2022/08/30 05:51:17;;;;;;;11.97;10.40;;;14.40;99.90;;;;;;5095062;28;20200;-83
2022/08/30 05:53:44;;;;;;;13.13;9.93;;;14.60;99.90;;;;;;5094350;28;20207;-82
2022/08/30 05:56:13;;;;;;;12.13;10.63;;;14.80;99.90;;;;;;5093842;28;20200;-83
2022/08/30 05:58:42;;;;;;;10.77;9.47;;;14.90;99.90;;;;;;5099679;28;20218;-83
2022/08/30 06:01:20;;;;;;;10.03;8.97;;;15.20;99.90;;;;;;5102652;28;20235;-83
2022/08/30 06:03:46;;;;;;;10.63;9.10;;;15.40;99.90;;;;;;5105315;28;20233;-82
2022/08/30 06:06:13;;;;;;;10.77;8.67;;;15.60;99.90;;;;;;5102282;28;20246;-82
2022/08/30 06:08:40;;;;;;;14.50;8.90;;;15.90;99.90;;;;;;5105061;28;20192;-82
2022/08/30 06:11:06;;;;;;;9.97;8.27;;;16.20;99.90;;;;;;5104943;28;20230;-82
2022/08/30 06:13:33;;;;;;;11.73;8.90;;;16.40;99.90;;;;;;5106019;28;20192;-82
2022/08/30 06:16:01;;;;;;;12.25;7.47;;;16.70;99.90;;;;;;5105212;28;20193;-82
2022/08/30 06:18:27;;;;;;;10.70;7.65;;;17.00;99.90;;;;;;5106915;28;20200;-82
2022/08/30 06:20:54;;;;;;;8.43;7.20;;;17.30;99.90;;;;;;5105877;28;20227;-82
2022/08/30 06:23:21;;;;;;;10.70;7.30;;;17.40;99.90;;;;;;5104872;28;20252;-82
2022/08/30 06:25:48;;;;;;;10.82;6.80;;;17.40;99.90;;;;;;5093369;28;20204;-82
2022/08/30 06:28:15;;;;;;;11.20;6.90;;;17.20;99.90;;;;;;5093666;28;20238;-82
2022/08/30 06:30:43;;;;;;;15.10;7.50;;;17.20;99.90;;;;;;5092825;28;20537;-82
2022/08/30 06:33:11;;;;;;;10.52;7.07;;;17.20;99.90;;;;;;5093008;28;20195;-80
2022/08/30 06:35:38;;;;;;;10.60;6.88;;;17.20;99.90;;;;;;5093250;28;20200;-80
2022/08/30 06:38:05;;;;;;;10.52;7.03;;;17.30;99.90;;;;;;5092907;28;20253;-88
2022/08/30 06:40:32;;;;;;;9.05;6.85;;;17.40;99.90;;;;;;5092985;28;20662;-81
2022/08/30 06:42:59;;;;;;;9.38;6.88;;;17.40;99.90;;;;;;5092811;28;20197;-93
2022/08/30 06:45:25;;;;;;;7.13;6.38;;;17.40;99.90;;;;;;5093171;28;20192;-80
2022/08/30 06:47:52;;;;;;;8.98;6.47;;;17.40;99.90;;;;;;5092473;28;20246;-79
2022/08/30 06:50:20;;;;;;;9.68;6.75;;;17.40;99.90;;;;;;5092443;28;20196;-80
2022/08/30 06:52:47;;;;;;;8.80;7.10;;;17.50;99.90;;;;;;5092492;28;20262;-80
2022/08/30 06:55:15;;;;;;;11.23;6.72;;;17.60;99.90;;;;;;5092103;28;20622;-80
2022/08/30 06:57:42;;;;;;;8.48;6.70;;;17.70;99.90;;;;;;5092771;28;20192;-84
2022/08/30 07:00:11;;;;;;;10.55;8.10;;;17.80;99.90;;;;;;5092531;28;20257;-80
2022/08/30 07:02:39;;;;;;;13.68;7.32;;;17.80;99.90;;;;;;5092402;28;20281;-81
2022/08/30 07:05:07;;;;;;;10.38;7.90;;;17.90;99.90;;;;;;5092596;28;20336;-81
2022/08/30 07:07:35;;;;;;;9.35;7.47;;;18.00;99.90;;;;;;5093406;28;20192;-79
2022/08/30 07:10:03;;;;;;;10.75;7.65;;;18.20;99.90;;;;;;5102833;28;20201;-80
2022/08/30 07:12:30;;;;;;;10.10;7.30;;;18.40;99.90;;;;;;5093791;28;20204;-78
2022/08/30 07:14:57;;;;;;;9.18;7.38;;;18.50;99.90;;;;;;5092534;28;20204;-81
2022/08/30 07:20:09;;;;;;;11.30;7.60;;;18.80;99.90;;;;;;5092212;28;20199;-79
2022/08/30 07:22:37;;;;;;;11.80;7.28;;;19.10;99.90;;;;;;5092005;28;20221;-79
2022/08/30 07:25:04;;;;;;;8.65;7.70;;;19.30;99.90;;;;;;5092303;28;20204;-79
2022/08/30 07:27:31;;;;;;;10.55;7.70;;;19.50;99.90;;;;;;5094116;28;20196;-79
2022/08/30 07:29:58;;;;;;;9.57;8.57;;;19.60;99.90;;;;;;5095676;28;20249;-79
2022/08/30 07:32:24;;;;;;;13.23;8.40;;;19.70;99.90;;;;;;5095657;28;20646;-80
2022/08/30 07:34:51;;;;;;;10.82;8.50;;;19.70;99.90;;;;;;5095482;28;20192;-79
2022/08/30 07:37:18;;;;;;;9.05;8.15;;;19.80;99.90;;;;;;5095455;28;20652;-80
2022/08/30 07:39:46;;;;;;;16.08;8.32;;;19.80;99.90;;;;;;5095530;28;20249;-80
2022/08/30 07:42:12;;;;;;;12.27;8.35;;;19.90;99.90;;;;;;5095391;28;20224;-80
2022/08/30 07:44:39;;;;;;;11.68;7.75;;;20.10;99.90;;;;;;5095395;28;20200;-80
2022/08/30 07:47:06;;;;;;;10.32;7.95;;;20.40;99.90;;;;;;5095232;28;20529;-80
2022/08/30 07:49:32;;;;;;;10.70;7.38;;;20.50;99.90;;;;;;5095348;28;20197;-79
2022/08/30 07:51:59;;;;;;;10.73;7.95;;;20.60;99.90;;;;;;5095138;28;20208;-79
2022/08/30 07:54:26;;;;;;;8.30;7.13;;;20.80;99.90;;;;;;5095142;28;20224;-79
2022/08/30 07:56:54;;;;;;;9.80;7.38;;;21.00;99.90;;;;;;5095225;28;20192;-80
2022/08/30 07:59:22;;;;;;;11.50;8.15;;;21.20;99.90;;;;;;5095101;28;20196;-80
2022/08/30 08:01:48;;;;;;;8.70;6.68;;;21.30;99.90;;;;;;5094936;28;20291;-80
2022/08/30 08:04:15;;;;;;;7.88;7.07;;;21.50;99.90;;;;;;5095161;28;20201;-79
2022/08/30 08:06:44;;;;;;;7.80;6.97;;;21.70;99.90;;;;;;5095191;28;20204;-81
2022/08/30 08:09:11;;;;;;;7.80;6.95;;;21.80;99.90;;;;;;5094971;28;20309;-80
2022/08/30 08:11:38;;;;;;;8.32;7.50;;;22.10;99.90;;;;;;5095003;28;20227;-81
2022/08/30 08:14:06;;;;;;;12.65;7.47;;;22.10;99.90;;;;;;5094861;28;20192;-80
2022/08/30 08:16:36;;;;;;;8.85;6.75;;;22.30;99.90;;;;;;5094651;28;20247;-80
2022/08/30 08:19:07;;;;;;;10.57;7.10;;;22.70;99.90;;;;;;5094576;28;20660;-80
2022/08/30 08:21:34;;;;;;;8.68;6.88;;;23.00;99.90;;;;;;5094738;28;20266;-80
2022/08/30 08:24:00;;;;;;;15.25;6.53;;;23.10;99.90;;;;;;5094779;28;20200;-80
2022/08/30 08:26:27;;;;;;;9.18;5.90;;;23.40;99.90;;;;;;5094597;28;20196;-80
2022/08/30 08:28:54;;;;;;;8.82;6.47;;;23.60;99.90;;;;;;5094431;28;20200;-79
2022/08/30 08:31:24;;;;;;;6.78;5.88;;;23.80;99.90;;;;;;5094713;28;20287;-79
2022/08/30 08:33:50;;;;;;;8.75;6.25;;;24.00;99.90;;;;;;5094580;28;20229;-79
2022/08/30 08:36:17;;;;;;;6.72;6.13;;;24.20;99.90;;;;;;5094506;28;20199;-80
2022/08/30 08:38:44;;;;;;;7.05;5.82;;;24.30;99.90;;;;;;5094224;28;20201;-79
2022/08/30 08:41:23;;;;;;;8.90;5.60;;;24.50;99.90;;;;;;5094108;28;20201;-81
2022/08/30 08:43:50;;;;;;;7.32;5.72;;;24.60;99.90;;;;;;5094213;28;20200;-81
2022/08/30 08:46:28;;;;;;;6.45;5.75;;;24.80;99.90;;;;;;5094310;28;20337;-80
2022/08/30 08:48:57;;;;;;;5.97;4.90;;;25.00;99.90;;;;;;5094208;28;20200;-80
2022/08/30 08:54:19;;;;;;;7.47;4.90;;;25.50;99.90;;;;;;5093922;28;20289;-80
2022/08/30 08:56:46;;;;;;;8.75;5.05;;;25.90;99.90;;;;;;5093891;28;20658;-80
2022/08/30 08:59:15;;;;;;;5.28;4.78;;;26.00;99.90;;;;;;5093972;28;20196;-80
2022/08/30 09:01:43;;;;;;;6.53;5.10;;;26.40;99.90;;;;;;5093959;28;20269;-81
2022/08/30 09:04:14;;;;;;;5.32;4.72;;;26.60;99.90;;;;;;5093796;28;20601;-80
2022/08/30 09:06:52;;;;;;;7.18;4.60;;;26.90;99.90;;;;;;5093682;28;20277;-80
2022/08/30 09:09:23;;;;;;;6.70;5.32;;;27.10;99.90;;;;;;5093864;28;20208;-80
2022/08/30 09:11:49;;;;;;;5.65;4.80;;;27.40;99.90;;;;;;5093906;28;20196;-80
2022/08/30 09:14:19;;;;;;;6.63;5.05;;;27.60;99.90;;;;;;5093641;28;20599;-80
2022/08/30 09:16:54;;;;;;;5.95;4.60;;;27.70;99.90;;;;;;5093695;28;20196;-80
2022/08/30 09:19:54;;;;;;;9.40;5.28;;;27.90;99.90;;;;;;5093950;28;20383;-80
2022/08/30 09:22:25;;;;;;;6.28;5.45;;;28.10;99.90;;;;;;5082086;28;20250;-80
2022/08/30 09:24:59;;;;;;;10.18;5.43;;;28.10;99.90;;;;;;5093689;28;20200;-80
2022/08/30 09:27:29;;;;;;;5.95;5.05;;;28.40;99.90;;;;;;5093433;28;20249;-80
2022/08/30 09:30:02;;;;;;;8.93;4.88;;;28.40;99.90;;;;;;5093459;28;20203;-80
2022/08/30 09:32:35;;;;;;;5.20;4.70;;;28.20;99.90;;;;;;5093432;28;20291;-79
2022/08/30 09:35:01;;;;;;;6.38;4.55;;;28.60;99.90;;;;;;5093213;28;20651;-80
2022/08/30 09:37:36;;;;;;;5.50;4.20;;;28.80;99.90;;;;;;5093301;28;20245;-80
2022/08/30 09:40:13;;;;;;;6.90;4.90;;;28.90;98.80;;;;;;5093110;28;20200;-80
2022/08/30 09:42:40;;;;;;;4.82;4.32;;;29.20;97.30;;;;;;5093328;28;20232;-80
2022/08/30 09:45:20;;;;;;;4.88;4.38;;;29.40;97.80;;;;;;5093136;28;20196;-80
2022/08/30 09:47:48;;;;;;;10.52;4.68;;;29.90;96.30;;;;;;5093013;28;20625;-80
2022/08/30 09:50:17;;;;;;;6.15;4.30;;;29.40;95.80;;;;;;5092199;28;20652;-79
2022/08/30 09:53:00;;;;;;;5.57;4.28;;;29.70;95.50;;;;;;5092998;28;20204;-80
2022/08/30 09:55:46;;;;;;;6.97;4.25;;;30.20;93.70;;;;;;5092917;28;20254;-80
2022/08/30 09:58:20;;;;;;;6.55;3.92;;;30.20;91.70;;;;;;5093201;28;20192;-80
2022/08/30 10:01:00;;;;;;;5.85;4.22;;;30.40;90.60;;;;;;5092842;28;20204;-79
2022/08/30 10:03:36;;;;;;;5.03;3.78;;;30.30;87.60;;;;;;5093144;28;20232;-78
2022/08/30 10:06:09;;;;;;;4.97;3.45;;;30.00;85.80;;;;;;5092956;28;20207;-79
2022/08/30 10:08:49;;;;;;;7.18;3.75;;;30.40;80.10;;;;;;5093119;28;20204;-78
2022/08/30 10:11:27;;;;;;;4.72;3.80;;;31.00;81.70;;;;;;5092685;28;20200;-79
2022/08/30 10:14:04;;;;;;;9.30;3.78;;;31.40;78.30;;;;;;5092957;28;20601;-79
2022/08/30 10:16:41;;;;;;;6.03;3.30;;;31.40;74.70;;;;;;5092735;28;20199;-79
2022/08/30 10:19:20;;;;;;;3.95;3.45;;;31.20;67.90;;;;;;5092750;28;20199;-80
2022/08/30 10:21:53;;;;;;;6.05;3.63;;;31.10;68.40;;;;;;5092555;28;20219;-80
2022/08/30 10:24:25;;;;;;;4.22;3.30;;;31.50;69.30;;;;;;5092921;28;20196;-80
2022/08/30 10:26:55;;;;;;;5.35;3.75;;;31.70;64.70;;;;;;5092852;28;20203;-80
2022/08/30 10:29:28;;;;;;;5.10;3.58;;;32.10;65.20;;;;;;5092768;28;20268;-80
2022/08/30 10:32:00;;;;;;;4.30;3.42;;;32.40;61.90;;;;;;5094005;28;20203;-80
2022/08/30 10:34:35;;;;;;;5.47;3.55;;;32.70;59.10;;;;;;5094232;28;20229;-79
2022/08/30 10:37:07;;;;;;;4.40;3.30;;;33.00;56.40;;;;;;5092592;28;20236;-80
2022/08/30 10:39:38;;;;;;;5.78;3.50;;;33.40;54.20;;;;;;5092542;28;20736;-78
2022/08/30 10:42:11;;;;;;;4.82;3.47;;;33.90;53.50;;;;;;5092312;28;20216;-78
2022/08/30 10:44:40;;;;;;;5.15;3.30;;;34.30;51.20;;;;;;5092742;28;20229;-78
2022/08/30 10:47:20;;;;;;;6.60;3.50;;;34.70;49.50;;;;;;5092858;28;20221;-80
2022/08/30 10:49:53;;;;;;;4.07;3.10;;;34.50;49.80;;;;;;5092892;28;20253;-79
2022/08/30 10:52:29;;;;;;;5.93;4.32;;;35.20;48.30;;;;;;5092450;28;20199;-79
2022/08/30 10:55:01;;;;;;;5.75;3.25;;;35.00;42.50;;;;;;5092243;28;20231;-78
2022/08/30 10:57:27;;;;;;;5.18;3.90;;;34.80;44.30;;;;;;5092807;28;20220;-79
2022/08/30 10:59:59;;;;;;;4.03;3.13;;;35.40;45.10;;;;;;5092255;28;20604;-79
2022/08/30 11:03:05;;;;;;;7.35;3.33;;;36.20;42.70;;;;;;5095998;28;20269;-78
2022/08/30 11:05:58;;;;;;;3.58;3.03;;;36.90;39.40;;;;;;5094181;28;20199;-78
2022/08/30 11:08:47;;;;;;;7.22;3.20;;;37.10;37.40;;;;;;5096238;28;20196;-79
2022/08/30 11:11:24;;;;;;;3.83;3.40;;;37.20;33.90;;;;;;5082886;28;20655;-79
2022/08/30 11:13:51;;;;;;;3.78;3.47;;;37.70;34.10;;;;;;5095878;28;20596;-80
2022/08/30 11:16:18;;;;;;;4.05;3.45;;;38.00;33.90;;;;;;5096063;28;20199;-78
2022/08/30 11:18:49;;;;;;;5.00;3.35;;;37.90;29.90;;;;;;5095929;28;20280;-78
2022/08/30 11:21:22;;;;;;;5.00;3.13;;;38.00;28.90;;;;;;5095654;28;20196;-78
2022/08/30 11:24:04;;;;;;;4.75;3.00;;;38.70;28.50;;;;;;5095889;28;20204;-77
2022/08/30 11:26:51;;;;;;;5.03;3.30;;;39.00;28.70;;;;;;5095900;28;20200;-78
2022/08/30 11:29:36;;;;;;;4.32;3.30;;;39.10;26.80;;;;;;5095764;28;20222;-80
2022/08/30 11:32:45;;;;;;;6.45;3.25;;;38.50;27.70;;;;;;5095591;28;20631;-79
2022/08/30 11:35:35;;;;;;;3.38;3.08;;;38.60;25.00;;;;;;5095347;28;20195;-80
2022/08/30 11:38:18;;;;;;;5.70;3.17;;;38.70;25.00;;;;;;5095719;28;20215;-79
2022/08/30 11:40:52;;;;;;;3.83;2.95;;;39.00;25.20;;;;;;5095463;28;20203;-80
2022/08/30 11:43:51;;;;;;;3.13;2.80;;;39.50;24.30;;;;;;5095167;28;20716;-79
2022/08/30 11:46:23;;;;;;;3.42;3.10;;;39.60;23.10;;;;;;5095724;28;20195;-79
2022/08/30 11:48:54;;;;;;;3.83;3.22;;;39.60;22.20;;;;;;5095347;28;20195;-78
2022/08/30 11:51:39;;;;;;;3.70;2.78;;;39.90;22.20;;;;;;5095224;28;20520;-79
2022/08/30 11:54:19;;;;;;;3.55;3.22;;;40.20;21.70;;;;;;5095146;28;20684;-78
2022/08/30 11:56:54;;;;;;;3.33;2.78;;;40.30;21.00;;;;;;5095372;28;20201;-79
2022/08/30 11:59:31;;;;;;;3.28;2.97;;;40.20;21.20;;;;;;5095227;28;20261;-79
2022/08/30 12:02:00;;;;;;;4.45;2.90;;;40.70;21.00;;;;;;5095173;28;20203;-78
2022/08/30 12:04:36;;;;;;;3.10;2.75;;;40.80;20.70;;;;;;5095171;28;20202;-79
2022/08/30 12:07:05;;;;;;;4.85;3.10;;;41.10;19.20;;;;;;5095121;28;20195;-78
2022/08/30 12:10:04;;;;;;;5.22;2.63;;;40.80;19.70;;;;;;5095028;28;20200;-79
2022/08/30 12:12:47;;;;;;;3.15;2.70;;;40.30;19.50;;;;;;5094367;28;20229;-78
2022/08/30 12:15:48;;;;;;;3.35;2.70;;;40.60;18.90;;;;;;5094928;28;20200;-79
2022/08/30 12:18:29;;;;;;;6.05;2.80;;;40.80;18.60;;;;;;5094591;28;20199;-77
2022/08/30 12:21:01;;;;;;;3.75;2.85;;;41.50;18.90;;;;;;5094949;28;20203;-79
2022/08/30 12:23:35;;;;;;;3.33;3.03;;;41.70;18.10;;;;;;5094750;28;20196;-79
2022/08/30 12:26:17;;;;;;;6.05;3.00;;;41.60;16.80;;;;;;5094568;28;20662;-79
2022/08/30 12:28:45;;;;;;;6.60;3.30;;;40.70;17.60;;;;;;5094507;28;20191;-80
2022/08/30 12:31:15;;;;;;;3.15;2.85;;;40.80;16.60;;;;;;5094775;28;20204;-78
2022/08/30 12:33:44;;;;;;;3.55;2.65;;;40.60;17.60;;;;;;5094456;28;20231;-79
2022/08/30 12:36:16;;;;;;;3.60;3.13;;;41.30;17.40;;;;;;5094564;28;20253;-78
2022/08/30 12:38:44;;;;;;;4.20;2.85;;;41.40;16.40;;;;;;5094316;28;20192;-77
2022/08/30 12:41:21;;;;;;;3.22;2.92;;;41.60;16.60;;;;;;5094412;28;20206;-79
2022/08/30 12:43:51;;;;;;;4.68;3.22;;;41.40;16.40;;;;;;5094588;28;20603;-78
2022/08/30 12:46:20;;;;;;;5.88;3.00;;;41.10;16.40;;;;;;5094588;28;20214;-78
2022/08/30 12:48:48;;;;;;;4.05;2.72;;;41.20;16.60;;;;;;5094328;28;20196;-78
2022/08/30 12:51:36;;;;;;;3.33;3.03;;;41.70;16.20;;;;;;5094311;28;20249;-77
2022/08/30 12:54:07;;;;;;;4.63;3.00;;;42.80;15.50;;;;;;5094020;28;20314;-79
2022/08/30 12:56:57;;;;;;;3.75;2.95;;;41.70;15.80;;;;;;5094248;28;20196;-78
2022/08/30 12:59:42;;;;;;;4.15;3.50;;;40.40;16.30;;;;;;5094184;28;20238;-78
2022/08/30 13:02:12;;;;;;;3.53;2.67;;;39.30;16.70;;;;;;5093964;28;20196;-79